DXNG

Niamtougou International Airport

Niamtougou, Togo
METAR DXNG 190700Z 22003KT 9999 FEW005 23/21 Q1017 NOSIG
Observed Flight Rules
Jul-19 @ 07:00 UTC (40 minutes ago) Visual Flight Rules
Wind Visibility Clouds
220° at 3 knots 10,000+ meters
  • Few at 500' AGL
Temperatures Readings
Current 23°C / 73°F
Dewpoint 21°C / 70°F
Humidity 89%
Altimeter 30.03" Hg
Pressure 1017 hPa
Elevation 343
METAR DXNG 190700Z 22003KT 9999 FEW005 23/21 Q1017 NOSIG
Observed Flight Rules
Jul-19 @ 07:00 UTC
(40 minutes ago)
VFR
Wind Visibility
220° at 3 knots 10,000+ meters
Clouds
  • Few at 500' AGL
Temperature Dewpoint
23°C / 73°F 21°C / 70°F
Humidity Altimeter Pressure
89% 30.03" Hg 1017 hPa